Arthur Freitas

Скаут - Bragantino
20 Фев 2028
Воскресенье
Продолжить

Характер

Адаптивность (9) Амбиции (6) Скандальность (16) Верность (10) Стрессоустойчивость (12) Профессионализм (16) Благородство (10) Темперамент (18)

Профиль

Стиль управления Демократичный
Лицензия Континентальная C
Решительность 11
Управление людьми 9
Мотивация 5
Дисциплина 14
Удовлетворённость
100%
Усталость
0%
Должность Скаут
Зарплата 60.9K в нед.
Контракт 14.03.2029

Производительность

Поведение Хорошее
Эффективность тренировок
54%
Развитие игроков
55%
Профилактика травм
65%
Тактическая реализация
60%

Недавние события

Участвовал в селекционном совещании только что
Рекомендовал трансферную цель только что
Участвовал в селекционном совещании 7 дн. назад
Рекомендовал трансферную цель 7 дн. назад
Рекомендовал трансферную цель 7 дн. назад
Участвовал в селекционном совещании 7 дн. назад
Рекомендовал трансферную цель 14 дн. назад
Участвовал в селекционном совещании 14 дн. назад

Текущее наблюдение

241
Игрок Клуб Статус Способность Уверенность Наблюдений Последнее наблюдение Последний голос
Lucas Ramon Sport Recife Активный 123 / 120 72% 1 03.12.2027 За
Griffin Yow New England Revolution Активный 124 / 123 40% 1 30.11.2027 -
Rodrigo Garro Corinthians Активный 146 / 142 40% 1 30.11.2027 -
Eduardo Felicíssimo Sporting CP Активный 112 / 133 40% 5 29.11.2027 -
Ayden Heaven Luton Town Активный 153 / 154 40% 5 29.11.2027 -
Myles Lewis-Skelly Birmingham Активный 147 / 165 40% 3 29.11.2027 -
Christos Mouzakitis Hull City Активный 142 / 152 40% 3 28.11.2027 -
João Teixeira Porto Активный 108 / 125 40% 1 28.11.2027 -
Maclyn Biokpo Jenewari Rivers United Активный 95 / 107 40% 1 28.11.2027 -
Alejo Veliz Bahia Активный 131 / 134 40% 1 28.11.2027 -
Daniel Costa Sporting CP Активный 105 / 108 40% 2 25.11.2027 -
Mauro Carrizo Atlético Tucumán Активный 100 / 113 40% 1 25.11.2027 -
Élohim Kaboré Hammarby Активный 113 / 116 40% 5 24.11.2027 -
Axel Kouamé AIK Активный 104 / 117 40% 2 24.11.2027 -
Jhon Durán Al-Nassr Активный 138 / 146 40% 1 24.11.2027 -
Marco Miori Alvarado Активный 107 / 114 40% 3 22.11.2027 -
Daniel Karlsbakk Sarpsborg 08 Активный 123 / 121 40% 2 21.11.2027 -
Liam Delap Nottingham Forest Активный 159 / 152 40% 1 21.11.2027 -
Tiziano Dornell Danubio Активный 109 / 118 40% 1 20.11.2027 -
Hosea Michael Remo Stars Активный 84 / 94 40% 5 19.11.2027 -
Ignacio Fernández Boston River Активный 85 / 101 40% 1 19.11.2027 -
Caleb Yirenkyi Coventry City Активный 147 / 154 40% 6 18.11.2027 -
Daniel Banjaqui Benfica Активный 128 / 127 40% 4 18.11.2027 -
Mikkel Hope Haugesund Активный 90 / 115 40% 1 18.11.2027 -
Luciano Inverso Rentistas Активный 115 / 118 40% 4 15.11.2027 -
Matheus Nascimento FC Dallas Активный 129 / 118 40% 2 15.11.2027 -
William Osula Wrexham Активный 139 / 129 40% 1 15.11.2027 -
Kevin Kelsy Portland Timbers Активный 113 / 119 40% 2 12.11.2027 -
Oswaldo Valencia Arema Активный 98 / 109 40% 1 12.11.2027 -
Luis Otávio Colorado Rapids Активный 100 / 126 40% 2 10.11.2027 -
Agustín Ruberto River Plate Активный 119 / 131 40% 4 09.11.2027 -
Lucas Carrizo Plaza Colonia Активный 122 / 118 40% 3 09.11.2027 -
Facundo de León Progreso Активный 113 / 115 40% 2 09.11.2027 -
Archie Gray Derby County Активный 141 / 160 40% 5 07.11.2027 -
Enzo Cabrera Danubio Активный 110 / 113 40% 3 06.11.2027 -
Jalal Abdullai Molde Активный 126 / 111 40% 1 06.11.2027 -
Miguel Figueiredo Cesena Активный 117 / 121 40% 1 06.11.2027 -
Josh King Chelsea Активный 149 / 151 40% 1 06.11.2027 -
Tiago Freitas Benfica Активный 112 / 120 40% 2 04.11.2027 -
Gift Udoh Ikorodu City Активный 91 / 94 40% 2 04.11.2027 -
Marvelous Freedom Ikorodu City Активный 80 / 95 40% 3 01.11.2027 -
Armindo Sieb Los Angeles Football Club Активный 136 / 127 40% 1 01.11.2027 -
Tyson Pearce St. Louis CITY SC Активный 94 / 93 40% 1 29.10.2027 -
Hervin Goyes Deportivo Pasto Активный 111 / 117 40% 1 29.10.2027 -
Harbor Miller LA Galaxy Активный 86 / 95 40% 1 27.10.2027 -
Josh Nichols Tranmere Rovers Активный 118 / 128 40% 1 27.10.2027 -
Elias Hoff Melkersen Stromsgodset Активный 118 / 111 40% 2 26.10.2027 -
Ezekiel Kwame Alladoh Philadelphia Union Активный 113 / 117 40% 1 26.10.2027 -
Ruben van Bommel Ferencvaros Активный 133 / 138 40% 1 24.10.2027 -
Taha Ayari AIK Активный 118 / 115 40% 1 24.10.2027 -
Evgeniy Malashevich Dinamo Brest Активный 112 / 100 40% 1 24.10.2027 -
Archie Goodwin Charlotte Football Club Активный 115 / 115 40% 3 23.10.2027 -
Frederik Ihler IF Elfsborg Активный 117 / 112 40% 1 21.10.2027 -
CJ Fodrey Austin FC Активный 96 / 96 40% 1 20.10.2027 -
Uroš Kojić AGMK Активный 105 / 99 40% 1 20.10.2027 -
Godwin Oham Warri Wolves Активный 82 / 81 40% 2 19.10.2027 -
Souza Tottenham Активный 130 / 130 40% 1 19.10.2027 -
Juan Morán Godoy Cruz Активный 114 / 115 40% 1 18.10.2027 -
Dennis Gjengaar Valerenga Активный 122 / 125 40% 1 17.10.2027 -
Figueiredo Sampaio Correa Активный 86 / 95 40% 2 15.10.2027 -
Mads Bomholt Stabaek Активный 109 / 108 40% 1 15.10.2027 -
João Fonseca Benfica Активный 107 / 109 40% 1 13.10.2027 -
Dominik Chong Qui Atlanta United FC Активный 97 / 92 40% 1 13.10.2027 -
Ricky Atletico Venezuela Активный 99 / 100 40% 1 13.10.2027 -
Kauã Moraes Cruzeiro Активный 122 / 123 40% 1 12.10.2027 -
Esteban de Lima Tacuarembo Активный 97 / 104 40% 1 06.10.2027 -
Johan Manzambi Newcastle United Активный 146 / 147 40% 1 06.10.2027 -
Fredi Bahia Активный 108 / 108 72% 1 12.07.2027 За
Bento Al-Nassr Активный 139 / 124 40% 1 31.05.2027 Нужно больше данных
Thomas De Bruyne Mouscron Активный 117 / 137 40% 1 31.05.2027 -
Matteo Rizzo Cosenza Активный 108 / 105 40% 1 31.05.2027 -
Hector Ramirez Newcastle United Активный 157 / 152 40% 2 30.05.2027 -
Teden Mengi Luton Town Активный 117 / 119 40% 1 30.05.2027 -
Giacomo Raspadori Atalanta Активный 158 / 136 40% 2 28.05.2027 -
Morgan Whittaker Middlesbrough Активный 143 / 137 40% 1 28.05.2027 -
Jacob Ramsey Newcastle United Активный 144 / 143 40% 3 27.05.2027 -
Anton Stach Leeds United Активный 155 / 156 40% 1 27.05.2027 -
Adrien Truffert Bournemouth Активный 160 / 147 40% 1 27.05.2027 -
Léo Scienza Southampton Активный 141 / 126 40% 2 25.05.2027 -
Tyler Adams Bournemouth Активный 161 / 145 40% 1 25.05.2027 -
Zaïd BafdilI Sporting CP Активный 83 / 106 40% 6 24.05.2027 -
Leandro Martins Benfica Активный 91 / 107 40% 3 24.05.2027 -
Gonçalo Oliveira Benfica Активный 115 / 122 40% 2 24.05.2027 -
Callum Hudson-Odoi Nottingham Forest Активный 151 / 160 40% 1 24.05.2027 -
Mats Wieffer Brighton Активный 148 / 150 40% 3 22.05.2027 -
Sorba Thomas Stoke City Активный 124 / 138 40% 1 22.05.2027 -
Ethan Galbraith Swansea City Активный 137 / 143 40% 1 22.05.2027 -
Marcus Edwards Burnley Активный 142 / 143 40% 2 21.05.2027 -
David Brooks Bournemouth Активный 150 / 142 40% 1 21.05.2027 -
Yehor Yarmoliuk Brentford Активный 155 / 160 40% 2 20.05.2027 -
Nico González Newcastle United Активный 164 / 171 40% 1 20.05.2027 -
Leif Davis Ipswich Town Активный 129 / 137 40% 1 20.05.2027 -
Malick Thiaw West Ham United Активный 152 / 158 40% 1 18.05.2027 -
Adam Randell Bristol City Активный 125 / 132 40% 1 18.05.2027 -
Juanlu Bournemouth Активный 148 / 159 40% 1 18.05.2027 -
Kazunari Kita Real Sociedad Активный 89 / 115 40% 2 17.05.2027 -
Sascha Britschgi Padova Активный 124 / 127 40% 1 17.05.2027 -
Darryl Bakola Padova Активный 104 / 120 40% 1 17.05.2027 -
Assane Diao Lazio Активный 152 / 151 40% 1 17.05.2027 -
Nicolas Jackson Aston Villa Активный 148 / 146 40% 1 17.05.2027 -
Kiernan Dewsbury-Hall Everton Активный 145 / 146 40% 1 16.05.2027 -
Dennis Cirkin Queens Park Rangers Активный 131 / 125 40% 2 14.05.2027 -
Jake O'Brien Everton Активный 153 / 142 40% 2 14.05.2027 -
Sven Botman Newcastle United Активный 164 / 167 40% 1 14.05.2027 -
Amine Adli Bournemouth Активный 139 / 142 40% 1 13.05.2027 -
Carlos Vicente Birmingham Активный 150 / 151 40% 1 13.05.2027 -
Amadou Onana Aston Villa Активный 148 / 151 40% 2 12.05.2027 -
James Garner Everton Активный 147 / 145 40% 1 11.05.2027 -
Nicolò Rovella Lazio Активный 162 / 141 40% 1 11.05.2027 -
Jacques Ekomié Wrexham Активный 138 / 122 40% 3 09.05.2027 -
Welington Southampton Активный 123 / 133 40% 1 09.05.2027 -
Tom Fellows Southampton Активный 142 / 129 40% 2 07.05.2027 -
Murillo Nottingham Forest Активный 152 / 146 40% 1 07.05.2027 -
Sidny Lopes Cabral Trabzonspor Активный 130 / 127 40% 1 07.05.2027 -
Ilyas Ansah Hull City Активный 123 / 136 40% 4 03.05.2027 -
Georginio Rutter Brighton Активный 151 / 154 40% 1 03.05.2027 -
Mikkel Damsgaard Brentford Активный 145 / 148 40% 2 02.05.2027 -
Donyell Malen AS Roma Активный 152 / 153 40% 1 01.05.2027 -
Ryan Sessegnon Fulham Активный 158 / 157 40% 1 01.05.2027 -
Matías Gómez Granada Активный 118 / 125 40% 3 30.04.2027 -
Ronwen Phiri Platinum Stars Активный 87 / 104 40% 1 29.04.2027 -
Christ Inao Oulaï Fiorentina Активный 134 / 129 40% 1 29.04.2027 -
Carlos Alcaraz Everton Активный 142 / 146 40% 1 27.04.2027 -
Dango Ouattara Brentford Активный 147 / 148 40% 1 27.04.2027 -
Luís Henrique Inter Активный 146 / 146 40% 1 26.04.2027 -
Roberto Fernández Braga Активный 142 / 139 40% 2 25.04.2027 -
Kevin Vazquez Cruz Azul Активный 128 / 151 40% 3 23.04.2027 -
Martim Fernandes Porto Активный 144 / 145 40% 3 23.04.2027 -
Tomás Araújo Benfica Активный 153 / 155 40% 3 20.04.2027 -
Alberto Costa Porto Активный 150 / 148 40% 2 19.04.2027 -
Pau Víctor AVS Активный 145 / 131 40% 1 19.04.2027 -
Valery Académico de Viseu Активный 128 / 130 40% 3 14.04.2027 -
Jan Bürger Gillingham Активный 121 / 118 40% 1 14.04.2027 -
Luke McNally Bristol City Активный 129 / 123 40% 1 14.04.2027 -
Francisco Moura Lusitânia Lourosa Активный 129 / 132 40% 2 12.04.2027 -
Soungoutou Magassa West Ham United Активный 127 / 142 40% 1 12.04.2027 -
José Neto Moreirense Активный 116 / 116 40% 2 10.04.2027 -
João Simões Sporting CP Активный 133 / 150 40% 4 08.04.2027 -
Noah Sadiki Sunderland Активный 142 / 158 40% 1 08.04.2027 -
Ramón Juárez Club America Активный 143 / 135 40% 1 08.04.2027 -
Ernie Weaver AFC Wimbledon Активный 106 / 110 40% 4 06.04.2027 -
Omar Campos Cruz Azul Активный 139 / 136 40% 2 06.04.2027 -
Keagan Tau Ajax Cape Town Активный 85 / 97 40% 3 06.04.2027 -
Richard Ledezma Guadalajara Активный 132 / 129 40% 1 06.04.2027 -
Riley Owen Trento Активный 96 / 95 40% 1 06.04.2027 -
Daniel Vernattus Metalist Активный 93 / 104 40% 2 05.04.2027 -
Martim Cunha Porto Активный 88 / 104 40% 2 05.04.2027 -
Davide Bartesaghi AC Milan Активный 133 / 137 40% 1 01.04.2027 -
Derry Murkin Derby County Активный 130 / 134 40% 1 01.04.2027 -
Tariq Lamptey Queens Park Rangers Активный 128 / 146 40% 1 30.03.2027 -
Harry Clarke Preston Активный 118 / 136 40% 1 30.03.2027 -
Milan van Ewijk Mansfield Town Активный 123 / 127 40% 1 30.03.2027 -
Oumar Solet Udinese Активный 139 / 157 40% 1 28.03.2027 -
Jofre Torrents Ajax Активный 133 / 139 40% 2 27.03.2027 -
Amadou Niang Al Ain Активный 109 / 128 40% 1 26.03.2027 -
James Dornelly Peterborough United Активный 96 / 112 40% 2 24.03.2027 -
Percy Jali Free State Stars Активный 100 / 87 40% 1 24.03.2027 -
Khalis Merah Toulouse FC Активный 118 / 118 40% 2 23.03.2027 -
David Ozoh Derby County Активный 122 / 135 40% 1 22.03.2027 -
Gonçalo Inácio Sporting CP Активный 155 / 151 40% 2 21.03.2027 -
Shea Charles Southampton Активный 146 / 146 40% 1 21.03.2027 -
Andrea Carboni Monza Активный 140 / 133 40% 1 21.03.2027 -
Iván Fresneda Sporting CP Активный 137 / 139 40% 3 20.03.2027 -
Aidan Morris Middlesbrough Активный 130 / 136 40% 1 19.03.2027 -
Christian Krasnodar Активный 147 / 144 40% 1 19.03.2027 -
Lewis Ferguson Bologna Активный 147 / 152 40% 1 18.03.2027 -
Sergi Altimira Sporting CP Активный 140 / 140 40% 1 18.03.2027 -
Toby Collyer West Bromwich Albion Активный 133 / 124 40% 1 17.03.2027 -
Victor Froholdt Porto Активный 143 / 163 40% 2 24.02.2027 -
Dylan Lawlor Cardiff City Активный 105 / 129 40% 1 17.02.2027 -
Breno Bidon Corinthians Активный 124 / 139 40% 1 05.02.2027 -
Bastien Meupiyou Alverca Активный 125 / 112 40% 1 01.02.2027 -
Oliver Skipp Leicester City Активный 134 / 137 40% 1 30.11.2026 -
Taichi Fukui Arouca Активный 122 / 137 40% 1 30.11.2026 -
Leo Castledine Middlesbrough Активный 125 / 118 40% 5 29.11.2026 -
Facundo Colidio Vasco da Gama Активный 138 / 122 40% 2 28.11.2026 -
Vinícius Lopes Santa Clara Активный 135 / 132 40% 4 27.11.2026 -
Gustavo Silva Vitoria Guimaraes Активный 124 / 120 40% 3 27.11.2026 -
Ianis Stoica Estrela da Amadora Активный 103 / 109 40% 2 26.11.2026 -
Dodi Lukébakio Benfica Активный 143 / 130 40% 1 26.11.2026 -
Zé Leite Leixões Активный 107 / 115 40% 3 25.11.2026 -
Arthur Cabral Botafogo Активный 120 / 122 40% 2 25.11.2026 -
Carlos Vinícius Grêmio Активный 133 / 144 40% 1 25.11.2026 -
Peter Shalulile Mamelodi Sundowns Активный 143 / 118 40% 2 24.11.2026 -
Roméo Beney Famalicao Активный 110 / 104 40% 2 23.11.2026 -
Senny Mayulu Paris Saint-Germain Активный 136 / 162 40% 1 23.11.2026 -
Martín Tejón Maritimo Активный 107 / 124 40% 2 21.11.2026 -
Negueba Mirassol Активный 121 / 129 40% 1 21.11.2026 -
Ricardo Horta Braga Активный 135 / 139 40% 1 20.11.2026 -
Pedro Raul Corinthians Активный 128 / 122 40% 1 20.11.2026 -
Kelian Baruti Liamba Estoril Praia Активный 84 / 85 40% 3 19.11.2026 -
Jalen Blesa Rio Ave Активный 122 / 128 40% 1 17.11.2026 -
Mateo Cassierra Atlético Mineiro Активный 132 / 122 40% 1 16.11.2026 -
Alfonso Trezza Arouca Активный 118 / 108 40% 3 13.11.2026 -
Gabriel Jesus Barcelona Активный 152 / 163 40% 2 11.11.2026 -
Neymar Santos Активный 155 / 138 40% 1 11.11.2026 -
Rocco Vata Watford Активный 133 / 122 40% 2 09.11.2026 -
Paulo Moreira Farense Активный 119 / 130 40% 2 09.11.2026 -
Alan Varela Porto Активный 154 / 135 40% 1 09.11.2026 -
Will Lankshear Middlesbrough Активный 129 / 136 40% 2 08.11.2026 -
Kasra Taheri Sepahan Активный 117 / 110 40% 1 08.11.2026 -
Víctor Guzmán Sporting CP Активный 82 / 105 40% 2 05.11.2026 -
Figueiredo Alverca Активный 125 / 113 40% 3 04.11.2026 -
Ozziel Herrera Tigres Активный 139 / 111 40% 1 04.11.2026 -
André Silva Tondela Активный 138 / 126 40% 2 03.11.2026 -
Lewis Morgan SuperSport United Активный 137 / 113 40% 2 02.11.2026 -
Zeno Debast Sporting CP Активный 148 / 141 40% 1 29.10.2026 -
Dara O'Shea Ipswich Town Активный 128 / 123 40% 1 29.10.2026 -
Sikou Niakaté Braga Активный 138 / 143 40% 1 29.10.2026 -
Gabriel Veron Porto Активный 138 / 131 40% 3 27.10.2026 -
Francisco Álvarez Argentinos Juniors Активный 127 / 127 40% 1 27.10.2026 -
André Lacximicant Estoril Praia Активный 125 / 111 40% 1 25.10.2026 -
Heung-Min Son Los Angeles Football Club Активный 148 / 144 40% 1 23.10.2026 -
Kévin Denkey FC Cincinnati Активный 135 / 122 40% 1 19.10.2026 -
Dawda Camara Alverca Активный 131 / 127 40% 2 16.10.2026 -
Tommy Conway Middlesbrough Активный 115 / 117 40% 1 16.10.2026 -
Jonás Luna Santa Clara Активный 112 / 120 40% 3 15.10.2026 -
Markus Jensen Nacional Активный 100 / 115 40% 2 14.10.2026 -
Dylan Cabral Arsenal Активный 92 / 109 40% 1 13.10.2026 -
Youssoufa Moukoko FC Copenhagen Активный 124 / 143 40% 1 13.10.2026 -
Santiago González Tigre Активный 124 / 130 40% 1 11.10.2026 -
Rafael Navarro St. Louis CITY SC Активный 122 / 136 40% 1 10.10.2026 -
Florentino Luís Ipswich Town Активный 148 / 140 40% 1 08.10.2026 -
Juan Pablo Freytes Fluminense Активный 134 / 130 40% 1 08.10.2026 -
Kevin Álvarez Club America Активный 132 / 135 40% 1 07.10.2026 -
Adnan Courtois KV Oostende Активный 138 / 120 40% 1 29.09.2026 -
Fally Mayulu Arouca Активный 104 / 126 40% 1 29.09.2026 -
Francesco Pio Esposito Inter Активный 135 / 136 40% 1 20.09.2026 -
Darren Yapi Colorado Rapids Активный 103 / 116 40% 1 17.09.2026 -
Renzo Machado Liverpool Montevideo Активный 112 / 126 40% 1 12.09.2026 -
Mathis Jangeal Famalicao Активный 85 / 97 40% 1 10.09.2026 -
José Manuel López Palmeiras Активный 141 / 145 40% 1 09.09.2026 -
Tadeo Allende Inter Miami CF Активный 116 / 122 40% 1 09.09.2026 -
Dilan Godoy Vélez Активный 104 / 114 40% 2 08.09.2026 -
Luca Koleosho Paris FC Активный 122 / 134 40% 1 07.09.2026 -
Rudi Almeida Famalicao Активный 83 / 80 40% 1 28.08.2026 -
Toni Tamarit Alverca Активный 125 / 118 40% 1 27.08.2026 -
Mateus Mané Manchester United Активный 133 / 123 40% 1 16.08.2026 -
Lucas Agazzi Defensor Sporting Активный 113 / 122 40% 1 03.08.2026 -
Stefanos Tzimas Brighton Активный 134 / 128 40% 1 03.08.2026 -
Yeimar Mosquera Vitoria Guimaraes Активный 110 / 100 40% 1 01.08.2026 -